Time;durP1;ratioP1;P1;durP2;ratioP2;P2;SDS_P1;SDS_P2;PMS_P1;PMS_P2;Temp;Humidity;BMP_temperature;BMP_pressure;BME280_temperature;BME280_humidity;BME280_pressure;Samples;Min_cycle;Max_cycle;Signal;HPM_P1;HPM_P2
2023/07/07 00:00:41;;;;;;;8.82;4.00;;;13.40;95.20;;;;;;5015872;28;20415;-73
2023/07/07 00:03:07;;;;;;;8.25;4.38;;;13.30;95.30;;;;;;5016229;28;20026;-73
2023/07/07 00:05:34;;;;;;;8.73;4.28;;;13.30;95.40;;;;;;4999310;28;20026;-73
2023/07/07 00:08:00;;;;;;;8.40;3.97;;;13.30;95.40;;;;;;5014429;28;20029;-73
2023/07/07 00:10:26;;;;;;;9.90;3.92;;;13.30;95.50;;;;;;5017032;28;20113;-73
2023/07/07 00:12:52;;;;;;;7.10;4.28;;;13.30;95.50;;;;;;5016405;28;20379;-74
2023/07/07 00:15:17;;;;;;;7.50;4.20;;;13.30;95.50;;;;;;4999889;28;20119;-74
2023/07/07 00:17:47;;;;;;;9.20;4.50;;;13.30;95.80;;;;;;5016058;28;20096;-73
2023/07/07 00:20:16;;;;;;;10.25;4.55;;;13.20;95.60;;;;;;5015084;28;20442;-74
2023/07/07 00:22:42;;;;;;;8.02;4.35;;;13.20;95.50;;;;;;4994390;28;20026;-73
2023/07/07 00:25:08;;;;;;;9.65;4.72;;;13.30;95.50;;;;;;5011962;28;20109;-74
2023/07/07 00:27:34;;;;;;;9.20;4.68;;;13.20;95.60;;;;;;5016616;28;20335;-73
2023/07/07 00:30:00;;;;;;;9.68;4.43;;;13.20;95.80;;;;;;5016097;28;20072;-74
2023/07/07 00:32:26;;;;;;;10.73;4.60;;;13.20;95.80;;;;;;5011918;28;20045;-73
2023/07/07 00:34:51;;;;;;;7.90;4.43;;;13.20;95.90;;;;;;5016996;28;20033;-73
2023/07/07 00:37:17;;;;;;;9.57;5.07;;;13.10;96.00;;;;;;5015091;28;20034;-73
2023/07/07 00:39:43;;;;;;;7.65;4.60;;;13.10;96.20;;;;;;5014891;28;20057;-74
2023/07/07 00:42:10;;;;;;;9.30;5.00;;;13.00;96.40;;;;;;5015553;28;20076;-73
2023/07/07 00:45:13;;;;;;;9.23;4.72;;;13.00;96.50;;;;;;5014548;28;20037;-74
2023/07/07 00:47:56;;;;;;;9.77;4.68;;;12.90;96.70;;;;;;5011678;28;20053;-74
2023/07/07 00:50:26;;;;;;;10.32;4.53;;;12.80;96.90;;;;;;5012330;28;20032;-74
2023/07/07 00:52:51;;;;;;;12.38;5.00;;;12.70;97.00;;;;;;5012485;28;20026;-74
2023/07/07 00:55:24;;;;;;;9.95;5.43;;;12.70;97.00;;;;;;5014913;28;20038;-73
2023/07/07 00:57:51;;;;;;;10.57;5.13;;;12.60;96.90;;;;;;5016690;28;20101;-74
2023/07/07 01:00:17;;;;;;;9.63;4.93;;;12.60;97.10;;;;;;5016532;28;20041;-74
2023/07/07 01:02:51;;;;;;;12.27;5.13;;;12.60;97.00;;;;;;4999178;28;20022;-74
2023/07/07 01:05:17;;;;;;;8.57;4.82;;;12.60;97.00;;;;;;5015633;28;20049;-74
2023/07/07 01:07:45;;;;;;;9.65;5.38;;;12.50;97.00;;;;;;5015122;28;20026;-74
2023/07/07 01:10:11;;;;;;;9.15;4.78;;;12.50;97.10;;;;;;5014612;28;20049;-74
2023/07/07 01:12:37;;;;;;;8.63;4.82;;;12.40;97.00;;;;;;4997547;28;20120;-74
2023/07/07 01:15:03;;;;;;;11.10;5.30;;;12.40;97.00;;;;;;5016137;28;20076;-73
2023/07/07 01:17:55;;;;;;;9.57;5.30;;;12.30;97.00;;;;;;5014226;28;20045;-74
2023/07/07 01:20:31;;;;;;;7.25;4.85;;;12.30;96.80;;;;;;5014482;28;20152;-74
2023/07/07 01:23:21;;;;;;;8.85;5.40;;;12.10;96.50;;;;;;5013109;28;20457;-73
2023/07/07 01:26:26;;;;;;;8.70;5.25;;;12.10;96.60;;;;;;5012082;28;20026;-74
2023/07/07 01:29:14;;;;;;;9.05;5.20;;;12.10;96.60;;;;;;5015534;28;20575;-74
2023/07/07 01:31:47;;;;;;;10.02;5.18;;;12.10;96.90;;;;;;5013258;28;20464;-74
2023/07/07 01:34:15;;;;;;;9.57;5.22;;;12.20;97.10;;;;;;5011681;28;20404;-74
2023/07/07 01:36:41;;;;;;;8.77;5.40;;;12.20;97.30;;;;;;5012206;28;20058;-74
2023/07/07 01:39:07;;;;;;;8.38;4.95;;;12.30;97.20;;;;;;4996079;28;20398;-74
2023/07/07 01:41:51;;;;;;;9.93;4.82;;;12.40;97.50;;;;;;4994889;28;20041;-74
2023/07/07 01:44:28;;;;;;;8.40;5.28;;;12.30;97.30;;;;;;5015302;28;20442;-74
2023/07/07 01:47:07;;;;;;;8.95;4.95;;;12.20;97.40;;;;;;5012774;28;20327;-74
2023/07/07 01:49:42;;;;;;;10.10;5.32;;;12.20;97.40;;;;;;5012950;28;20025;-73
2023/07/07 01:52:23;;;;;;;8.93;5.35;;;12.20;97.30;;;;;;5012261;28;20363;-74
2023/07/07 01:54:56;;;;;;;8.85;4.88;;;12.20;97.10;;;;;;5015250;28;20033;-74
2023/07/07 01:57:24;;;;;;;8.70;5.22;;;12.10;96.80;;;;;;5018641;28;20080;-73
2023/07/07 01:59:50;;;;;;;8.23;5.30;;;12.10;97.10;;;;;;5017317;28;20070;-74
2023/07/07 02:02:15;;;;;;;10.40;5.50;;;12.10;97.00;;;;;;5016897;28;20076;-73
2023/07/07 02:04:41;;;;;;;9.20;5.40;;;12.10;97.00;;;;;;5016761;28;20030;-73
2023/07/07 02:07:07;;;;;;;7.97;5.32;;;12.00;97.20;;;;;;5017094;28;20029;-73
2023/07/07 02:09:33;;;;;;;10.30;5.43;;;12.00;97.00;;;;;;5015018;28;20030;-74
2023/07/07 02:11:59;;;;;;;11.05;4.97;;;12.00;97.00;;;;;;5018764;28;20054;-74
2023/07/07 02:14:24;;;;;;;9.38;5.68;;;11.90;97.00;;;;;;5017160;28;20026;-73
2023/07/07 02:16:50;;;;;;;7.72;5.15;;;11.90;97.00;;;;;;5017156;28;20042;-72
2023/07/07 02:19:17;;;;;;;10.35;5.00;;;11.90;96.90;;;;;;5017843;28;20454;-73
2023/07/07 02:21:42;;;;;;;8.73;5.10;;;12.00;97.20;;;;;;5016224;28;20025;-72
2023/07/07 02:24:11;;;;;;;10.32;5.32;;;12.00;97.10;;;;;;5015370;28;20386;-73
2023/07/07 02:26:37;;;;;;;7.82;4.80;;;12.00;97.40;;;;;;5017645;28;20431;-73
2023/07/07 02:29:03;;;;;;;8.05;5.05;;;12.10;97.60;;;;;;5017177;28;20064;-73
2023/07/07 02:31:28;;;;;;;8.25;4.97;;;12.10;97.40;;;;;;5017776;28;20053;-73
2023/07/07 02:33:54;;;;;;;13.07;5.68;;;12.10;97.50;;;;;;5015124;28;20030;-73
2023/07/07 02:36:20;;;;;;;12.18;5.70;;;12.00;97.40;;;;;;5015527;28;20026;-73
2023/07/07 02:38:46;;;;;;;9.82;5.10;;;11.90;97.10;;;;;;4998142;28;20022;-73
2023/07/07 02:41:12;;;;;;;9.07;5.18;;;12.00;97.60;;;;;;5016386;28;20057;-73
2023/07/07 02:43:38;;;;;;;11.52;5.63;;;12.00;97.60;;;;;;5017398;28;20482;-73
2023/07/07 02:46:04;;;;;;;12.05;5.75;;;12.10;97.60;;;;;;4998412;28;20084;-73
2023/07/07 02:48:29;;;;;;;8.00;4.97;;;12.10;97.50;;;;;;5012606;28;20075;-73
2023/07/07 02:50:57;;;;;;;9.82;4.88;;;12.20;97.80;;;;;;5016472;28;20375;-73
2023/07/07 02:53:29;;;;;;;8.85;5.43;;;12.10;97.50;;;;;;4998185;28;20057;-73
2023/07/07 02:55:54;;;;;;;7.70;5.13;;;12.10;97.60;;;;;;5007888;28;20033;-74
2023/07/07 02:58:21;;;;;;;10.35;5.93;;;12.20;97.70;;;;;;5000990;28;20029;-74
2023/07/07 03:00:47;;;;;;;11.15;6.38;;;12.10;97.60;;;;;;5016880;28;20033;-73
2023/07/07 03:03:14;;;;;;;10.65;5.78;;;12.10;97.40;;;;;;5015772;28;20453;-73
2023/07/07 03:05:40;;;;;;;11.43;5.50;;;12.30;97.80;;;;;;5000327;28;20093;-73
2023/07/07 03:08:06;;;;;;;9.45;5.93;;;12.40;97.50;;;;;;5015322;28;20966;-73
2023/07/07 03:10:33;;;;;;;9.32;5.03;;;12.50;97.60;;;;;;4998606;28;20033;-73
2023/07/07 03:12:59;;;;;;;9.23;5.70;;;12.50;97.60;;;;;;5014368;28;20023;-73
2023/07/07 03:15:29;;;;;;;10.15;5.60;;;12.30;97.50;;;;;;5007362;28;20033;-72
2023/07/07 03:17:55;;;;;;;10.00;5.85;;;12.30;97.50;;;;;;5017952;28;20034;-73
2023/07/07 03:20:23;;;;;;;9.85;5.60;;;12.30;97.40;;;;;;5017228;28;20057;-73
2023/07/07 03:22:49;;;;;;;8.68;5.65;;;12.30;97.60;;;;;;5015096;28;20065;-73
2023/07/07 03:25:14;;;;;;;12.30;6.22;;;12.30;97.80;;;;;;5018045;28;20115;-74
2023/07/07 03:27:40;;;;;;;12.02;6.00;;;12.30;97.90;;;;;;5019091;28;20080;-73
2023/07/07 03:30:07;;;;;;;8.93;5.72;;;12.30;97.50;;;;;;5014751;28;20033;-74
2023/07/07 03:32:32;;;;;;;10.82;6.20;;;12.20;97.50;;;;;;5013391;28;20057;-73
2023/07/07 03:34:58;;;;;;;8.70;5.38;;;12.10;97.50;;;;;;5018065;28;20057;-73
2023/07/07 03:37:23;;;;;;;8.63;5.30;;;12.00;97.40;;;;;;5014937;28;20041;-73
2023/07/07 03:39:49;;;;;;;9.82;5.78;;;11.90;97.20;;;;;;5015736;28;20304;-73
2023/07/07 03:42:14;;;;;;;10.48;5.65;;;11.90;97.00;;;;;;5016928;28;20116;-73
2023/07/07 03:44:40;;;;;;;10.13;5.68;;;11.90;97.20;;;;;;5013444;28;20057;-74
2023/07/07 03:47:06;;;;;;;9.40;5.43;;;11.80;97.10;;;;;;5015566;28;20030;-74
2023/07/07 03:49:31;;;;;;;10.32;6.05;;;11.70;96.60;;;;;;5015755;28;20030;-73
2023/07/07 03:52:00;;;;;;;11.95;6.07;;;11.70;96.50;;;;;;5012124;28;20116;-75
2023/07/07 03:54:25;;;;;;;9.35;5.80;;;11.70;96.50;;;;;;5017422;28;20037;-74
2023/07/07 03:56:51;;;;;;;10.65;6.18;;;11.80;96.90;;;;;;5014876;28;20410;-73
2023/07/07 03:59:20;;;;;;;10.05;6.35;;;11.80;96.70;;;;;;5018465;28;20018;-73
2023/07/07 04:01:47;;;;;;;10.18;5.95;;;11.80;96.70;;;;;;5027034;28;20381;-73
2023/07/07 04:04:12;;;;;;;13.73;6.03;;;11.80;96.30;;;;;;5025500;28;20078;-73
2023/07/07 04:06:38;;;;;;;12.10;6.15;;;11.80;96.30;;;;;;5008318;28;20034;-73
2023/07/07 04:09:03;;;;;;;10.50;5.90;;;11.80;95.90;;;;;;5011430;28;20033;-73
2023/07/07 04:11:30;;;;;;;8.75;5.45;;;11.80;96.00;;;;;;4997787;28;20026;-74
2023/07/07 04:13:56;;;;;;;12.13;5.93;;;11.80;95.70;;;;;;5015751;28;20049;-73
2023/07/07 04:16:24;;;;;;;9.82;5.68;;;11.80;95.40;;;;;;4996725;28;20022;-73
2023/07/07 04:18:54;;;;;;;11.73;6.22;;;11.90;95.40;;;;;;5015053;28;20046;-73
2023/07/07 04:21:28;;;;;;;11.27;6.15;;;12.00;96.20;;;;;;5012231;28;20025;-74
2023/07/07 04:23:55;;;;;;;11.10;5.85;;;12.00;96.00;;;;;;5015381;28;20057;-73
2023/07/07 04:26:23;;;;;;;9.30;5.78;;;12.00;96.00;;;;;;5014337;28;20108;-73
2023/07/07 04:28:54;;;;;;;11.43;5.70;;;11.90;95.10;;;;;;5015382;28;20041;-73
2023/07/07 04:31:23;;;;;;;10.60;6.28;;;11.90;95.00;;;;;;5016257;28;20156;-73
2023/07/07 04:33:49;;;;;;;9.63;5.97;;;11.90;95.00;;;;;;5016805;28;20034;-73
2023/07/07 04:36:15;;;;;;;10.07;5.70;;;12.00;94.90;;;;;;5014651;28;20308;-73
2023/07/07 04:38:40;;;;;;;9.65;5.97;;;12.00;95.10;;;;;;4999201;28;20034;-75
2023/07/07 04:41:14;;;;;;;8.65;5.45;;;12.10;95.30;;;;;;5016670;28;20129;-73
2023/07/07 04:43:45;;;;;;;20.00;6.93;;;12.20;95.70;;;;;;5016935;28;20025;-73
2023/07/07 04:46:16;;;;;;;9.27;5.65;;;12.30;96.70;;;;;;5016765;28;20049;-72
2023/07/07 04:48:42;;;;;;;10.90;6.80;;;12.40;96.70;;;;;;5016571;28;20030;-74
2023/07/07 04:51:10;;;;;;;10.07;6.38;;;12.50;96.50;;;;;;5015318;28;20036;-73
2023/07/07 04:53:37;;;;;;;11.25;6.25;;;12.60;96.40;;;;;;5015814;28;20431;-73
2023/07/07 04:56:09;;;;;;;9.02;5.80;;;12.60;97.30;;;;;;5016639;28;20068;-73
2023/07/07 04:58:39;;;;;;;11.00;6.13;;;12.70;97.00;;;;;;5020294;28;20068;-74
2023/07/07 05:01:08;;;;;;;11.18;5.75;;;12.70;97.10;;;;;;5012427;28;20037;-73
2023/07/07 05:03:35;;;;;;;8.73;5.55;;;12.80;97.00;;;;;;5007154;28;20299;-74
2023/07/07 05:06:03;;;;;;;9.90;5.95;;;12.90;97.10;;;;;;4995682;28;20033;-74
2023/07/07 05:08:33;;;;;;;17.77;6.50;;;12.90;97.40;;;;;;5007797;28;20057;-73
2023/07/07 05:10:59;;;;;;;11.88;6.30;;;13.10;97.30;;;;;;5015137;28;20032;-73
2023/07/07 05:13:25;;;;;;;10.15;6.30;;;13.20;98.00;;;;;;5019659;28;20331;-73
2023/07/07 05:16:00;;;;;;;9.07;6.03;;;13.40;98.00;;;;;;4980868;28;20031;-73
2023/07/07 05:18:26;;;;;;;11.15;6.03;;;13.60;97.80;;;;;;4992664;28;20116;-73
2023/07/07 05:20:52;;;;;;;9.93;6.57;;;13.70;97.70;;;;;;5013582;28;20052;-74
2023/07/07 05:23:17;;;;;;;12.35;6.43;;;13.90;97.60;;;;;;5015849;28;20022;-74
2023/07/07 05:25:45;;;;;;;9.80;5.50;;;14.10;97.30;;;;;;5015001;28;20327;-74
2023/07/07 05:28:10;;;;;;;9.20;5.60;;;14.20;97.20;;;;;;5015689;28;20026;-74
2023/07/07 05:30:38;;;;;;;9.60;5.70;;;14.40;97.40;;;;;;5009887;28;20034;-74
2023/07/07 05:33:04;;;;;;;9.13;5.65;;;14.50;97.00;;;;;;5016249;28;20365;-74
2023/07/07 05:35:32;;;;;;;10.07;5.70;;;14.60;96.70;;;;;;4994404;28;20030;-74
2023/07/07 05:38:02;;;;;;;14.10;8.75;;;14.80;96.80;;;;;;5010861;28;20172;-74
2023/07/07 05:40:28;;;;;;;11.52;7.60;;;14.90;96.00;;;;;;5009656;28;20511;-74
2023/07/07 05:42:54;;;;;;;10.93;6.10;;;15.10;95.40;;;;;;4998693;28;20136;-74
2023/07/07 05:45:21;;;;;;;14.00;8.70;;;15.30;95.10;;;;;;5000803;28;20061;-73
2023/07/07 05:47:47;;;;;;;10.57;6.72;;;15.50;95.10;;;;;;4997893;28;20033;-74
2023/07/07 05:50:13;;;;;;;11.63;6.68;;;15.70;93.70;;;;;;5005545;28;20052;-74
2023/07/07 05:52:38;;;;;;;11.18;6.13;;;15.80;93.90;;;;;;5008270;28;20089;-74
2023/07/07 05:55:05;;;;;;;10.43;6.28;;;16.00;92.70;;;;;;5014868;28;20037;-74
2023/07/07 05:57:31;;;;;;;9.88;5.88;;;16.10;92.50;;;;;;5012796;28;20029;-74
2023/07/07 05:59:56;;;;;;;10.38;5.82;;;16.30;92.30;;;;;;5007814;28;20042;-74
2023/07/07 06:02:22;;;;;;;13.13;6.47;;;16.50;91.60;;;;;;5014213;28;20378;-75
2023/07/07 06:04:47;;;;;;;8.95;5.80;;;16.70;91.20;;;;;;5011191;28;20041;-74
2023/07/07 06:07:13;;;;;;;12.75;5.95;;;17.00;90.80;;;;;;5012741;28;20048;-74
2023/07/07 06:09:38;;;;;;;10.77;6.03;;;17.10;90.00;;;;;;5008586;28;20040;-74
2023/07/07 06:12:05;;;;;;;11.30;5.88;;;17.40;90.20;;;;;;5015671;28;20026;-75
2023/07/07 06:14:31;;;;;;;12.07;5.93;;;17.50;89.60;;;;;;5014132;28;20033;-74
2023/07/07 06:16:56;;;;;;;9.57;5.43;;;17.60;88.90;;;;;;5007398;28;20026;-74
2023/07/07 06:19:22;;;;;;;10.82;6.28;;;17.80;88.10;;;;;;5014618;28;20025;-74
2023/07/07 06:21:48;;;;;;;10.45;5.70;;;17.90;88.80;;;;;;5014557;28;20033;-74
2023/07/07 06:24:13;;;;;;;10.55;5.93;;;18.00;89.20;;;;;;5009711;28;20053;-74
2023/07/07 06:26:39;;;;;;;9.65;5.18;;;18.00;88.80;;;;;;5014635;28;20434;-74
2023/07/07 06:29:05;;;;;;;11.73;5.28;;;18.00;89.40;;;;;;5006138;28;20034;-74
2023/07/07 06:31:30;;;;;;;10.00;5.63;;;18.10;89.90;;;;;;5006077;28;20084;-74
2023/07/07 06:33:56;;;;;;;10.05;5.40;;;18.20;88.70;;;;;;5008936;28;20026;-74
2023/07/07 06:36:21;;;;;;;10.45;5.13;;;18.30;88.50;;;;;;4995119;28;20071;-75
2023/07/07 06:38:47;;;;;;;8.02;5.32;;;18.40;88.60;;;;;;5009972;28;20034;-74
2023/07/07 06:41:21;;;;;;;8.32;5.10;;;18.60;88.40;;;;;;4997644;28;20435;-74
2023/07/07 06:43:47;;;;;;;9.20;5.20;;;18.70;88.50;;;;;;5017502;28;20081;-74
2023/07/07 06:46:14;;;;;;;11.27;5.45;;;18.90;87.80;;;;;;5020138;28;20069;-74
2023/07/07 06:48:40;;;;;;;9.13;4.75;;;18.90;88.00;;;;;;5003329;28;20311;-73
2023/07/07 06:51:05;;;;;;;18.50;5.78;;;19.20;87.50;;;;;;4996988;28;20026;-74
2023/07/07 06:53:31;;;;;;;12.43;5.70;;;19.30;87.30;;;;;;5018956;28;20022;-74
2023/07/07 06:55:57;;;;;;;8.65;5.47;;;19.40;87.40;;;;;;5014615;28;20057;-75
2023/07/07 06:58:22;;;;;;;12.00;5.43;;;19.50;86.90;;;;;;5014276;28;20054;-74
2023/07/07 07:00:48;;;;;;;23.73;6.82;;;19.50;86.60;;;;;;5010443;28;20119;-74
2023/07/07 07:03:13;;;;;;;10.68;5.47;;;19.50;87.70;;;;;;5015192;28;20030;-74
2023/07/07 07:05:40;;;;;;;12.82;5.85;;;19.70;87.80;;;;;;5016370;28;20088;-74
2023/07/07 07:08:06;;;;;;;10.05;5.18;;;19.80;86.90;;;;;;5013506;28;20020;-73
2023/07/07 07:10:31;;;;;;;11.32;5.53;;;19.80;87.20;;;;;;5016397;28;20468;-73
2023/07/07 07:12:57;;;;;;;9.45;5.40;;;20.00;85.90;;;;;;4999145;28;20034;-73
2023/07/07 07:15:22;;;;;;;9.82;5.10;;;20.30;84.80;;;;;;4999147;28;20101;-74
2023/07/07 07:17:48;;;;;;;9.35;5.10;;;20.60;84.40;;;;;;4998827;28;20428;-73
2023/07/07 07:20:14;;;;;;;9.88;5.65;;;20.80;83.10;;;;;;5006211;28;20079;-73
2023/07/07 07:22:39;;;;;;;12.25;5.68;;;20.90;82.60;;;;;;5016690;28;20030;-75
2023/07/07 07:25:06;;;;;;;11.38;5.75;;;21.20;81.00;;;;;;5018241;28;20133;-73
2023/07/07 07:27:31;;;;;;;12.20;5.32;;;21.40;78.70;;;;;;5013905;28;20026;-74
2023/07/07 07:29:57;;;;;;;12.20;5.40;;;22.00;79.70;;;;;;4998889;28;20038;-73
2023/07/07 07:32:23;;;;;;;10.63;5.57;;;22.80;78.20;;;;;;5018355;28;20022;-74
2023/07/07 07:34:48;;;;;;;10.25;5.35;;;23.80;74.30;;;;;;5017499;28;20026;-73
2023/07/07 07:37:14;;;;;;;9.48;5.30;;;24.50;72.20;;;;;;5015277;28;20033;-74
2023/07/07 07:39:40;;;;;;;11.00;5.72;;;24.90;70.30;;;;;;5002385;28;20025;-74
2023/07/07 07:42:06;;;;;;;11.15;5.82;;;25.60;69.80;;;;;;5017968;28;20045;-74
2023/07/07 07:44:31;;;;;;;8.43;5.40;;;25.80;68.30;;;;;;5005376;28;20431;-74
2023/07/07 07:46:58;;;;;;;8.32;4.65;;;26.30;67.70;;;;;;5013519;28;20393;-74
2023/07/07 07:49:25;;;;;;;8.25;4.53;;;26.80;67.40;;;;;;5014328;28;20145;-74
2023/07/07 07:51:51;;;;;;;9.27;4.93;;;27.40;65.90;;;;;;5011924;28;20038;-74
2023/07/07 07:54:18;;;;;;;7.32;4.40;;;27.90;64.40;;;;;;5017825;28;20041;-74
2023/07/07 07:56:44;;;;;;;8.32;4.63;;;28.30;63.20;;;;;;5017809;28;20026;-73
2023/07/07 07:59:10;;;;;;;9.50;5.38;;;28.20;63.40;;;;;;5016152;28;20025;-72
2023/07/07 08:01:35;;;;;;;9.63;5.50;;;28.40;62.80;;;;;;4998176;28;20101;-73
2023/07/07 08:04:03;;;;;;;8.63;5.00;;;28.40;61.60;;;;;;5005420;28;20474;-72
2023/07/07 08:06:29;;;;;;;8.07;5.13;;;28.40;61.60;;;;;;5015645;28;20030;-72
2023/07/07 08:08:54;;;;;;;9.57;5.32;;;28.40;61.90;;;;;;5017054;28;20438;-73
2023/07/07 08:11:46;;;;;;;8.73;4.78;;;28.60;62.00;;;;;;5017480;28;20064;-73
2023/07/07 08:14:16;;;;;;;10.85;5.55;;;28.80;63.20;;;;;;5006729;28;20041;-73
2023/07/07 08:16:42;;;;;;;7.60;4.50;;;29.20;60.80;;;;;;5002540;28;20046;-74
2023/07/07 08:19:09;;;;;;;9.35;5.15;;;29.30;59.70;;;;;;5007922;28;20038;-74
2023/07/07 08:21:35;;;;;;;16.35;5.40;;;29.60;60.60;;;;;;5014443;28;20018;-74
2023/07/07 08:24:01;;;;;;;9.55;4.72;;;29.80;58.90;;;;;;5015979;28;20018;-74
2023/07/07 08:26:27;;;;;;;9.27;5.75;;;30.10;58.90;;;;;;5015567;28;20183;-75
2023/07/07 08:28:53;;;;;;;10.40;5.70;;;30.00;58.80;;;;;;5017217;28;20446;-73
2023/07/07 08:31:18;;;;;;;8.77;5.40;;;29.80;56.90;;;;;;5016674;28;20017;-74
2023/07/07 08:33:46;;;;;;;8.63;5.70;;;29.80;57.80;;;;;;5008163;28;20315;-73
2023/07/07 08:36:12;;;;;;;10.75;5.40;;;30.00;57.70;;;;;;5013170;28;20038;-74
2023/07/07 08:38:37;;;;;;;9.02;5.78;;;30.20;58.50;;;;;;5012573;28;20434;-73
2023/07/07 08:41:03;;;;;;;10.75;5.70;;;30.50;56.60;;;;;;5016680;28;20128;-73
2023/07/07 08:43:30;;;;;;;8.48;5.38;;;30.50;56.70;;;;;;5014081;28;20117;-73
2023/07/07 08:46:19;;;;;;;8.57;5.65;;;30.70;56.40;;;;;;5015101;28;20481;-73
2023/07/07 08:49:07;;;;;;;10.07;6.07;;;30.90;54.10;;;;;;4983237;28;20039;-73
2023/07/07 08:52:15;;;;;;;9.23;5.88;;;30.80;55.40;;;;;;5010255;28;20033;-73
2023/07/07 08:55:16;;;;;;;9.38;5.43;;;30.80;55.10;;;;;;4954207;28;20415;-73
2023/07/07 08:57:54;;;;;;;9.00;5.70;;;30.30;54.10;;;;;;5014994;28;20106;-73
2023/07/07 09:00:40;;;;;;;8.55;5.85;;;29.80;54.40;;;;;;5013764;28;20041;-73
2023/07/07 09:03:15;;;;;;;8.75;5.90;;;30.10;54.90;;;;;;5001124;28;20030;-74
2023/07/07 09:06:06;;;;;;;8.80;5.80;;;30.90;53.90;;;;;;5015519;28;20120;-73
2023/07/07 09:09:07;;;;;;;10.07;5.40;;;31.20;52.60;;;;;;4975375;28;20038;-73
2023/07/07 09:11:53;;;;;;;9.30;5.57;;;32.00;53.60;;;;;;4985201;28;20037;-74
2023/07/07 09:14:19;;;;;;;9.15;5.78;;;32.10;51.90;;;;;;4985486;28;20339;-73
2023/07/07 09:16:47;;;;;;;14.05;6.70;;;31.50;52.60;;;;;;5015240;28;20112;-73
2023/07/07 09:19:21;;;;;;;10.02;6.13;;;31.00;51.60;;;;;;5015750;28;20034;-74
2023/07/07 09:21:58;;;;;;;8.30;5.75;;;30.30;54.30;;;;;;5015463;28;20041;-73
2023/07/07 09:24:33;;;;;;;9.10;5.80;;;30.70;54.70;;;;;;5016144;28;20038;-74
2023/07/07 09:27:07;;;;;;;10.70;6.55;;;30.80;52.80;;;;;;5015351;28;20042;-74
2023/07/07 09:29:33;;;;;;;10.02;6.63;;;31.10;49.80;;;;;;5016265;28;20030;-73
2023/07/07 09:32:02;;;;;;;9.65;5.90;;;30.50;50.80;;;;;;5013913;28;20418;-73
2023/07/07 09:34:30;;;;;;;9.82;6.30;;;30.30;51.80;;;;;;5008170;28;20042;-73
2023/07/07 09:37:13;;;;;;;11.30;6.38;;;30.40;51.50;;;;;;5006508;28;20042;-74
2023/07/07 09:39:50;;;;;;;10.70;6.53;;;30.40;51.20;;;;;;5007589;28;20104;-73
2023/07/07 09:42:42;;;;;;;10.63;6.93;;;30.60;52.00;;;;;;5015957;28;20125;-73
2023/07/07 09:45:28;;;;;;;10.75;6.10;;;31.10;49.40;;;;;;5015409;28;20034;-73
2023/07/07 09:48:12;;;;;;;10.27;6.53;;;32.00;49.80;;;;;;5000021;28;20109;-73
2023/07/07 09:51:07;;;;;;;10.98;6.55;;;32.50;49.80;;;;;;5015782;28;20323;-73
2023/07/07 09:53:36;;;;;;;10.75;6.70;;;33.00;48.60;;;;;;5015448;28;20038;-73
2023/07/07 09:56:02;;;;;;;10.25;5.95;;;32.90;49.10;;;;;;5015874;28;20022;-74
2023/07/07 09:58:44;;;;;;;10.38;6.25;;;32.80;48.50;;;;;;5015978;28;20420;-74
2023/07/07 10:01:10;;;;;;;11.15;6.45;;;32.90;48.70;;;;;;5012258;28;20433;-73
2023/07/07 10:03:47;;;;;;;9.20;6.43;;;33.40;48.00;;;;;;5013994;28;20034;-73
2023/07/07 10:06:39;;;;;;;12.70;6.72;;;33.80;48.20;;;;;;5012993;28;20026;-73
2023/07/07 10:09:11;;;;;;;12.68;7.45;;;33.90;46.30;;;;;;5015327;28;20363;-74
2023/07/07 10:11:38;;;;;;;10.90;6.97;;;33.60;46.10;;;;;;5015340;28;20076;-73
2023/07/07 10:14:06;;;;;;;13.88;6.82;;;33.40;46.00;;;;;;5019342;28;20411;-73
2023/07/07 10:16:56;;;;;;;10.93;6.05;;;33.30;45.20;;;;;;5019140;28;20038;-73
2023/07/07 10:19:24;;;;;;;9.98;6.15;;;33.20;47.00;;;;;;5008237;28;20117;-74
2023/07/07 10:21:50;;;;;;;10.18;6.28;;;32.60;46.20;;;;;;5004770;28;20375;-74
2023/07/07 10:24:16;;;;;;;11.80;6.43;;;32.80;46.00;;;;;;5008080;28;20033;-74
2023/07/07 10:26:47;;;;;;;11.30;6.40;;;33.00;43.20;;;;;;5017116;28;20304;-73
2023/07/07 10:29:16;;;;;;;9.13;5.97;;;33.20;45.00;;;;;;4999863;28;20023;-73
2023/07/07 10:31:43;;;;;;;10.68;5.85;;;32.90;44.20;;;;;;5010017;28;20092;-73
2023/07/07 10:34:26;;;;;;;10.60;5.93;;;33.20;45.20;;;;;;5017692;28;20054;-73
2023/07/07 10:36:54;;;;;;;10.30;6.15;;;33.20;45.30;;;;;;5015833;28;20033;-73
2023/07/07 10:39:31;;;;;;;9.70;6.35;;;33.50;45.70;;;;;;5017540;28;20030;-73
2023/07/07 10:41:57;;;;;;;9.90;5.43;;;33.60;43.20;;;;;;5008052;28;20387;-73
2023/07/07 10:44:27;;;;;;;9.25;5.45;;;33.60;43.90;;;;;;5005454;28;20037;-73
2023/07/07 10:46:53;;;;;;;10.45;6.10;;;33.60;43.90;;;;;;5019058;28;20494;-74
2023/07/07 10:49:24;;;;;;;9.77;5.80;;;33.80;44.40;;;;;;5017055;28;20026;-73
2023/07/07 10:52:27;;;;;;;12.50;5.97;;;33.70;46.00;;;;;;5011037;28;20026;-73
2023/07/07 10:55:20;;;;;;;11.40;5.90;;;33.10;46.80;;;;;;5012999;28;20026;-73
2023/07/07 10:57:55;;;;;;;11.18;5.97;;;32.40;48.10;;;;;;5016769;28;20018;-73
2023/07/07 11:00:35;;;;;;;8.98;5.68;;;32.60;47.70;;;;;;5017150;28;20076;-73
2023/07/07 11:03:07;;;;;;;8.98;5.40;;;32.50;46.90;;;;;;5000132;28;20451;-73
2023/07/07 11:06:10;;;;;;;10.65;5.80;;;32.00;48.20;;;;;;5014561;28;20033;-73
2023/07/07 11:08:59;;;;;;;10.10;5.53;;;32.20;48.10;;;;;;4985669;28;20062;-73
2023/07/07 11:11:36;;;;;;;8.82;5.65;;;31.90;49.30;;;;;;4979449;28;20038;-73
2023/07/07 11:14:10;;;;;;;10.00;5.88;;;32.20;49.20;;;;;;5015513;28;20032;-74
2023/07/07 11:17:16;;;;;;;8.93;5.65;;;32.50;48.10;;;;;;5001202;28;20034;-74
2023/07/07 11:20:12;;;;;;;8.75;5.68;;;32.80;49.80;;;;;;4938733;29;20059;-73
2023/07/07 11:23:05;;;;;;;9.48;6.22;;;32.80;48.50;;;;;;5015117;28;20534;-74
2023/07/07 11:26:09;;;;;;;12.57;5.50;;;32.60;48.30;;;;;;5015507;28;20050;-73
2023/07/07 11:28:45;;;;;;;15.30;6.53;;;32.50;47.80;;;;;;5016922;28;20315;-73
2023/07/07 11:31:20;;;;;;;8.77;5.10;;;32.10;49.40;;;;;;5008185;28;20022;-73
2023/07/07 11:33:58;;;;;;;10.38;5.70;;;31.80;49.80;;;;;;4998740;28;20030;-73
2023/07/07 11:36:47;;;;;;;12.63;6.25;;;30.80;50.40;;;;;;4997482;28;20427;-73
2023/07/07 11:39:35;;;;;;;12.77;6.45;;;30.80;50.90;;;;;;5005508;28;20030;-73
2023/07/07 11:42:22;;;;;;;9.90;5.55;;;31.40;52.80;;;;;;5014867;28;20046;-73
2023/07/07 11:45:20;;;;;;;11.90;5.53;;;32.30;51.20;;;;;;5001989;28;20034;-73
2023/07/07 11:47:49;;;;;;;12.38;5.65;;;32.80;48.40;;;;;;4998614;28;20029;-73
2023/07/07 11:50:23;;;;;;;9.43;5.22;;;33.20;48.20;;;;;;5011145;28;20050;-74
2023/07/07 11:53:09;;;;;;;12.35;5.57;;;33.10;45.80;;;;;;5012407;28;20026;-73
2023/07/07 11:56:17;;;;;;;11.35;5.72;;;32.70;46.20;;;;;;5018136;28;20037;-73
2023/07/07 11:59:04;;;;;;;8.52;5.60;;;32.20;46.50;;;;;;5006310;28;20037;-74
2023/07/07 12:01:41;;;;;;;9.70;5.72;;;31.10;47.40;;;;;;4998354;28;20042;-73
2023/07/07 12:04:27;;;;;;;10.73;5.95;;;31.30;46.90;;;;;;4998271;28;20116;-73
2023/07/07 12:06:54;;;;;;;9.68;5.38;;;31.00;48.70;;;;;;4998766;28;20030;-73
2023/07/07 12:09:36;;;;;;;10.25;5.68;;;31.10;47.80;;;;;;4998286;28;20162;-73
2023/07/07 12:12:16;;;;;;;9.65;5.25;;;31.20;48.80;;;;;;5006266;28;20053;-73
2023/07/07 12:14:45;;;;;;;9.65;5.70;;;31.60;46.50;;;;;;5017553;28;20026;-73
2023/07/07 12:17:16;;;;;;;10.77;6.05;;;32.00;47.60;;;;;;5016042;28;20037;-73
2023/07/07 12:19:51;;;;;;;10.23;4.78;;;32.50;46.60;;;;;;5014126;28;20112;-73
2023/07/07 12:22:21;;;;;;;12.65;5.28;;;33.00;47.20;;;;;;5008919;28;20403;-73
2023/07/07 12:25:09;;;;;;;11.45;5.47;;;33.50;46.70;;;;;;5017455;28;20046;-73
2023/07/07 12:27:39;;;;;;;10.23;5.40;;;34.10;45.20;;;;;;5014873;28;20426;-74
2023/07/07 12:30:11;;;;;;;18.63;6.07;;;34.70;46.60;;;;;;5014350;28;20034;-73
2023/07/07 12:32:37;;;;;;;9.88;5.72;;;35.00;45.20;;;;;;4985223;28;20454;-73
2023/07/07 12:35:14;;;;;;;10.80;5.22;;;34.90;43.80;;;;;;5011194;28;20034;-73
2023/07/07 12:37:40;;;;;;;8.27;5.30;;;34.50;46.30;;;;;;5016020;28;20030;-74
2023/07/07 12:40:16;;;;;;;12.45;5.90;;;34.30;44.90;;;;;;5017133;28;20030;-73
2023/07/07 12:42:43;;;;;;;11.88;5.13;;;34.30;43.80;;;;;;4999073;28;20339;-73
2023/07/07 12:45:31;;;;;;;10.70;5.55;;;34.70;44.30;;;;;;5011724;28;20093;-74
2023/07/07 12:48:03;;;;;;;8.70;4.88;;;35.50;44.50;;;;;;5002828;28;20050;-74
2023/07/07 12:50:42;;;;;;;8.27;4.93;;;36.10;43.30;;;;;;5018405;28;20070;-73
2023/07/07 12:53:34;;;;;;;8.00;4.80;;;36.60;44.00;;;;;;5012434;28;20403;-74
2023/07/07 12:56:17;;;;;;;8.55;4.63;;;37.10;41.10;;;;;;4998650;28;20065;-73
2023/07/07 12:58:48;;;;;;;9.13;4.78;;;36.40;41.60;;;;;;5009793;28;20030;-74
2023/07/07 13:01:13;;;;;;;9.82;4.82;;;36.70;43.10;;;;;;5015539;28;20076;-72
2023/07/07 13:04:12;;;;;;;8.48;5.00;;;36.90;43.00;;;;;;5014663;28;20105;-74